Time;durP1;ratioP1;P1;durP2;ratioP2;P2;SDS_P1;SDS_P2;PMS_P1;PMS_P2;Temp;Humidity;BMP_temperature;BMP_pressure;BME280_temperature;BME280_humidity;BME280_pressure;Samples;Min_cycle;Max_cycle;Signal;HPM_P1;HPM_P2
2021/09/26 11:56:43;;;;;;;14.43;4.95;;;;;;;;;;5128221;27;20374;-89
2021/09/26 11:59:13;;;;;;;23.90;5.72;;;;;;;;;;5111083;28;20422;-90
2021/09/26 12:01:48;;;;;;;6.95;4.68;;;;;;;;;;5095293;28;20341;-91
2021/09/26 12:04:21;;;;;;;15.95;4.90;;;;;;;;;;5094720;28;20058;-89
2021/09/26 12:06:54;;;;;;;6.97;4.60;;;;;;;;;;5110805;28;20329;-90
2021/09/26 12:09:33;;;;;;;9.15;4.57;;;;;;;;;;5109421;28;20322;-90
2021/09/26 12:11:59;;;;;;;14.18;4.65;;;;;;;;;;5089329;28;20020;-90
2021/09/26 12:14:29;;;;;;;10.48;4.90;;;;;;;;;;5094258;28;20017;-90
2021/09/26 12:17:03;;;;;;;11.35;4.22;;;;;;;;;;5094630;28;20043;-90
2021/09/26 12:19:29;;;;;;;12.20;4.60;;;;;;;;;;5094073;28;20042;-90
2021/09/26 12:22:20;;;;;;;8.52;5.30;;;;;;;;;;5102611;28;20024;-89
2021/09/26 12:24:53;;;;;;;22.45;5.03;;;;;;;;;;5072771;28;20144;-89
2021/09/26 12:27:25;;;;;;;10.60;4.65;;;;;;;;;;5072753;28;20032;-90
2021/09/26 12:30:04;;;;;;;15.90;4.50;;;;;;;;;;5072609;28;20043;-89
2021/09/26 12:32:32;;;;;;;12.75;5.65;;;;;;;;;;5072598;28;20107;-90
2021/09/26 12:34:59;;;;;;;7.97;5.00;;;;;;;;;;5072352;28;20029;-90
2021/09/26 12:37:29;;;;;;;10.88;4.75;;;;;;;;;;5055898;28;20017;-91
2021/09/26 12:39:58;;;;;;;9.25;5.50;;;;;;;;;;5055619;28;20538;-90
2021/09/26 12:42:26;;;;;;;11.88;5.22;;;;;;;;;;5055078;28;20033;-90
2021/09/26 12:44:52;;;;;;;12.15;6.57;;;;;;;;;;5055659;28;20069;-90
2021/09/26 12:47:21;;;;;;;11.98;4.45;;;;;;;;;;5072368;28;20049;-89
2021/09/26 12:49:48;;;;;;;10.90;4.25;;;;;;;;;;5072314;28;20040;-90
2021/09/26 12:52:16;;;;;;;13.02;6.80;;;;;;;;;;5055573;28;20068;-91
2021/09/26 12:54:45;;;;;;;11.68;4.50;;;;;;;;;;5055005;28;20041;-90
2021/09/26 12:57:14;;;;;;;10.73;4.40;;;;;;;;;;5071981;28;20063;-90
2021/09/26 12:59:44;;;;;;;7.28;4.20;;;;;;;;;;5071860;28;20028;-92
2021/09/26 13:02:10;;;;;;;6.97;4.55;;;;;;;;;;5087177;28;20029;-90
2021/09/26 13:04:37;;;;;;;10.50;4.68;;;;;;;;;;5093945;28;20024;-91
2021/09/26 13:07:04;;;;;;;11.48;5.13;;;;;;;;;;5085650;28;20024;-90
2021/09/26 13:09:33;;;;;;;5.85;3.85;;;;;;;;;;5079413;28;20074;-86
2021/09/26 13:12:01;;;;;;;36.45;25.38;;;;;;;;;;5080254;28;20028;-89
2021/09/26 13:14:32;;;;;;;42.17;24.08;;;;;;;;;;5079987;28;20108;-90
2021/09/26 13:17:02;;;;;;;10.85;6.78;;;;;;;;;;5080145;28;20410;-90
2021/09/26 13:19:49;;;;;;;18.27;7.88;;;;;;;;;;5080160;28;20062;-90
2021/09/26 13:22:15;;;;;;;13.50;10.27;;;;;;;;;;5079058;28;20033;-89
2021/09/26 13:24:45;;;;;;;8.95;5.95;;;;;;;;;;5080074;28;20032;-89
2021/09/26 13:27:14;;;;;;;11.80;4.60;;;;;;;;;;5080006;28;20032;-90
2021/09/26 13:29:40;;;;;;;7.93;4.00;;;;;;;;;;5079712;28;20024;-89
2021/09/26 13:32:15;;;;;;;7.03;3.90;;;;;;;;;;5079957;28;20108;-89
2021/09/26 13:34:44;;;;;;;16.08;5.13;;;;;;;;;;5078753;28;20029;-90
2021/09/26 13:37:15;;;;;;;9.60;5.20;;;;;;;;;;5080165;28;20042;-90
2021/09/26 13:39:47;;;;;;;9.95;4.80;;;;;;;;;;5078676;28;20024;-90
2021/09/26 13:42:19;;;;;;;11.63;4.90;;;;;;;;;;5080259;28;20040;-89
2021/09/26 13:44:46;;;;;;;7.72;4.78;;;;;;;;;;5079846;28;20424;-90
2021/09/26 13:47:12;;;;;;;5.30;3.83;;;;;;;;;;5078943;28;20032;-89
2021/09/26 13:49:38;;;;;;;6.45;4.70;;;;;;;;;;5078920;28;20120;-89
2021/09/26 13:52:05;;;;;;;13.90;5.32;;;;;;;;;;5078855;28;20029;-90
2021/09/26 13:54:31;;;;;;;9.25;4.50;;;;;;;;;;5079511;28;20037;-89
2021/09/26 13:56:58;;;;;;;13.02;4.53;;;;;;;;;;5079472;28;20021;-89
2021/09/26 13:59:24;;;;;;;12.05;5.03;;;;;;;;;;5079657;28;20020;-89
2021/09/26 14:01:50;;;;;;;12.95;4.70;;;;;;;;;;5079646;28;20307;-89
2021/09/26 14:04:16;;;;;;;9.20;4.97;;;;;;;;;;5078443;28;20024;-89
2021/09/26 14:06:43;;;;;;;11.95;5.20;;;;;;;;;;5079387;28;20025;-88
2021/09/26 14:09:09;;;;;;;9.23;4.68;;;;;;;;;;5077916;28;20021;-88
2021/09/26 14:11:35;;;;;;;8.68;4.72;;;;;;;;;;5078801;28;20044;-88
2021/09/26 14:14:03;;;;;;;6.82;4.50;;;;;;;;;;5080169;28;20021;-88
2021/09/26 14:16:29;;;;;;;14.15;5.00;;;;;;;;;;5085713;28;20040;-88
2021/09/26 14:18:55;;;;;;;8.85;4.97;;;;;;;;;;5078344;28;20020;-89
2021/09/26 14:21:23;;;;;;;14.63;4.78;;;;;;;;;;5077516;28;20051;-88
2021/09/26 14:23:49;;;;;;;10.75;5.35;;;;;;;;;;5078617;28;20017;-89
2021/09/26 14:26:15;;;;;;;8.18;4.90;;;;;;;;;;5078085;28;20032;-89
2021/09/26 14:28:42;;;;;;;12.82;5.28;;;;;;;;;;5079161;28;20123;-91
2021/09/26 14:31:08;;;;;;;7.07;4.97;;;;;;;;;;5079098;28;20017;-90
2021/09/26 14:33:35;;;;;;;6.53;4.97;;;;;;;;;;5077581;28;20052;-89
2021/09/26 14:36:02;;;;;;;11.90;5.40;;;;;;;;;;5077410;28;20036;-90
2021/09/26 14:38:28;;;;;;;11.15;5.72;;;;;;;;;;5077516;28;20040;-89
2021/09/26 14:40:54;;;;;;;10.57;5.65;;;;;;;;;;5078484;28;20313;-89
2021/09/26 14:43:21;;;;;;;12.25;5.32;;;;;;;;;;5077693;28;20020;-89
2021/09/26 14:45:47;;;;;;;10.90;4.72;;;;;;;;;;5078424;28;20028;-89
2021/09/26 14:48:13;;;;;;;14.35;5.13;;;;;;;;;;5078298;28;20314;-90
2021/09/26 14:50:40;;;;;;;15.70;5.47;;;;;;;;;;5078428;28;20036;-89
2021/09/26 14:53:07;;;;;;;13.82;5.47;;;;;;;;;;5078310;28;20299;-90
2021/09/26 14:55:34;;;;;;;15.60;7.88;;;;;;;;;;5077509;28;20044;-89
2021/09/26 14:58:00;;;;;;;20.10;9.95;;;;;;;;;;5078379;28;20353;-89
2021/09/26 15:00:26;;;;;;;19.13;7.68;;;;;;;;;;5077828;28;20021;-87
2021/09/26 15:02:52;;;;;;;14.65;6.70;;;;;;;;;;5068023;28;20453;-85
2021/09/26 15:05:19;;;;;;;19.75;10.18;;;;;;;;;;5077871;28;20071;-87
2021/09/26 15:07:45;;;;;;;16.92;8.23;;;;;;;;;;5078315;28;20040;-92
2021/09/26 15:10:12;;;;;;;14.30;7.07;;;;;;;;;;5078715;28;20025;-90
2021/09/26 15:12:38;;;;;;;18.65;7.38;;;;;;;;;;5077909;28;20024;-85
2021/09/26 15:15:06;;;;;;;18.35;9.27;;;;;;;;;;5077121;28;20528;-85
2021/09/26 15:17:32;;;;;;;27.85;14.90;;;;;;;;;;5077595;28;20056;-84
2021/09/26 15:19:58;;;;;;;22.63;12.05;;;;;;;;;;5077246;28;20036;-84
2021/09/26 15:22:24;;;;;;;21.90;12.07;;;;;;;;;;5076244;28;20024;-82
2021/09/26 15:24:50;;;;;;;19.58;9.98;;;;;;;;;;5077382;28;20276;-82
2021/09/26 15:27:16;;;;;;;20.92;9.43;;;;;;;;;;5077418;28;20145;-82
2021/09/26 15:29:42;;;;;;;24.70;9.93;;;;;;;;;;5076274;28;20039;-85
2021/09/26 15:32:09;;;;;;;19.50;8.27;;;;;;;;;;5077823;28;20024;-85
2021/09/26 15:34:35;;;;;;;17.70;8.18;;;;;;;;;;5077921;28;20036;-83
2021/09/26 15:37:01;;;;;;;17.90;10.05;;;;;;;;;;5077928;28;20024;-84
2021/09/26 15:39:27;;;;;;;26.02;13.25;;;;;;;;;;5077469;28;20433;-83
2021/09/26 15:41:54;;;;;;;30.77;14.07;;;;;;;;;;5076479;28;20032;-84
2021/09/26 15:44:20;;;;;;;30.77;15.98;;;;;;;;;;5077951;28;20314;-86
2021/09/26 15:46:46;;;;;;;29.48;17.13;;;;;;;;;;5077629;28;20137;-85
2021/09/26 15:49:12;;;;;;;39.15;18.00;;;;;;;;;;5077657;28;20035;-85
2021/09/26 15:51:38;;;;;;;41.70;21.58;;;;;;;;;;5077865;28;20328;-85
2021/09/26 15:54:04;;;;;;;44.67;22.15;;;;;;;;;;5076540;28;20027;-81
2021/09/26 15:56:30;;;;;;;50.10;24.02;;;;;;;;;;5076916;28;20093;-83
2021/09/26 15:58:57;;;;;;;49.30;24.60;;;;;;;;;;5077911;28;20062;-85
2021/09/26 16:01:23;;;;;;;51.85;26.92;;;;;;;;;;5077296;28;20024;-83
2021/09/26 16:03:50;;;;;;;52.42;26.25;;;;;;;;;;5076268;28;20016;-85
2021/09/26 16:06:18;;;;;;;73.05;28.05;;;;;;;;;;5077494;28;20141;-84
2021/09/26 16:08:46;;;;;;;69.25;27.13;;;;;;;;;;5077602;28;20070;-85
2021/09/26 16:11:13;;;;;;;59.58;25.58;;;;;;;;;;5079466;28;20032;-87
2021/09/26 16:13:39;;;;;;;56.75;32.20;;;;;;;;;;5078475;28;20035;-84
2021/09/26 16:16:05;;;;;;;73.78;36.30;;;;;;;;;;5077388;28;20119;-84
2021/09/26 16:18:31;;;;;;;71.88;33.20;;;;;;;;;;5076229;28;20075;-84
2021/09/26 16:20:59;;;;;;;54.40;27.58;;;;;;;;;;5077478;28;20025;-82
2021/09/26 16:23:29;;;;;;;60.72;28.73;;;;;;;;;;5077351;28;20021;-83
2021/09/26 16:25:55;;;;;;;40.63;21.67;;;;;;;;;;5077076;28;20107;-83
2021/09/26 16:28:25;;;;;;;44.20;25.55;;;;;;;;;;5076903;28;20035;-83
2021/09/26 16:30:52;;;;;;;44.20;24.15;;;;;;;;;;5075934;28;20030;-83
2021/09/26 16:33:20;;;;;;;45.03;23.05;;;;;;;;;;5076792;28;20066;-84
2021/09/26 16:35:47;;;;;;;48.05;24.35;;;;;;;;;;5076929;28;20149;-83
2021/09/26 16:38:13;;;;;;;41.70;22.13;;;;;;;;;;5075747;28;20017;-82
2021/09/26 16:40:39;;;;;;;42.67;22.00;;;;;;;;;;5076729;28;20382;-83
2021/09/26 16:43:06;;;;;;;44.03;23.00;;;;;;;;;;5079725;28;20481;-83
2021/09/26 16:45:33;;;;;;;38.10;21.23;;;;;;;;;;5079525;28;20563;-84
2021/09/26 16:47:59;;;;;;;41.53;21.65;;;;;;;;;;5080388;28;20157;-83
2021/09/26 16:50:27;;;;;;;41.58;24.20;;;;;;;;;;5079426;28;20024;-84
2021/09/26 16:52:53;;;;;;;39.80;23.38;;;;;;;;;;5079424;28;20021;-83
2021/09/26 16:55:19;;;;;;;38.17;23.30;;;;;;;;;;5080152;28;20114;-83
2021/09/26 16:57:45;;;;;;;39.33;24.75;;;;;;;;;;5080259;28;20403;-84
2021/09/26 17:00:13;;;;;;;36.67;23.30;;;;;;;;;;5080499;28;20035;-83
2021/09/26 17:02:39;;;;;;;40.15;26.10;;;;;;;;;;5080224;28;20031;-84
2021/09/26 17:05:05;;;;;;;42.53;24.52;;;;;;;;;;5080377;28;20025;-84
2021/09/26 17:07:31;;;;;;;42.78;25.25;;;;;;;;;;5079174;28;20035;-84
2021/09/26 17:13:01;;;;;;;37.67;21.10;;;;;;;;;;5079912;28;20328;-84
2021/09/26 17:15:29;;;;;;;54.20;36.05;;;;;;;;;;5078872;28;20029;-84
2021/09/26 17:17:56;;;;;;;69.57;47.10;;;;;;;;;;5080152;28;20120;-84
2021/09/26 17:20:25;;;;;;;45.95;27.55;;;;;;;;;;5080060;28;20402;-84
2021/09/26 17:22:52;;;;;;;74.28;46.47;;;;;;;;;;5079430;28;20032;-84
2021/09/26 17:25:18;;;;;;;39.00;17.50;;;;;;;;;;5079139;28;20424;-85
2021/09/26 17:27:45;;;;;;;31.95;19.75;;;;;;;;;;5080076;28;20024;-83
2021/09/26 17:30:12;;;;;;;36.35;22.30;;;;;;;;;;5079948;28;20323;-84
2021/09/26 17:32:41;;;;;;;32.70;15.77;;;;;;;;;;5080104;28;20047;-84
2021/09/26 17:35:08;;;;;;;28.15;14.50;;;;;;;;;;5078754;28;20137;-84
2021/09/26 17:37:34;;;;;;;31.15;14.57;;;;;;;;;;5079673;28;20013;-84
2021/09/26 17:40:01;;;;;;;39.38;22.17;;;;;;;;;;5079570;28;20398;-84
2021/09/26 17:42:30;;;;;;;28.67;15.18;;;;;;;;;;5079587;28;20035;-85
2021/09/26 17:44:56;;;;;;;25.77;14.95;;;;;;;;;;5080002;28;20028;-85
2021/09/26 17:47:22;;;;;;;28.40;14.65;;;;;;;;;;5079430;28;20029;-84
2021/09/26 17:49:48;;;;;;;32.47;13.27;;;;;;;;;;5079639;28;20078;-84
2021/09/26 17:52:15;;;;;;;22.70;12.93;;;;;;;;;;5079223;28;20490;-84
2021/09/26 17:54:41;;;;;;;25.13;13.07;;;;;;;;;;5079077;28;20048;-84
2021/09/26 17:57:07;;;;;;;30.80;13.45;;;;;;;;;;5078194;28;20016;-86
2021/09/26 17:59:34;;;;;;;23.15;13.75;;;;;;;;;;5078970;28;20448;-85
2021/09/26 18:02:01;;;;;;;35.75;14.65;;;;;;;;;;5079449;28;20032;-84
2021/09/26 18:04:27;;;;;;;28.63;14.02;;;;;;;;;;5079319;28;20020;-84
2021/09/26 18:06:53;;;;;;;27.08;14.68;;;;;;;;;;5079301;28;20033;-84
2021/09/26 18:09:19;;;;;;;25.27;14.52;;;;;;;;;;5079453;28;20024;-84
2021/09/26 18:11:46;;;;;;;30.00;14.60;;;;;;;;;;5078512;28;20082;-83
2021/09/26 18:14:12;;;;;;;26.42;15.20;;;;;;;;;;5078801;28;20112;-83
2021/09/26 18:16:38;;;;;;;31.98;15.20;;;;;;;;;;5078464;28;20111;-83
2021/09/26 18:19:04;;;;;;;26.08;15.50;;;;;;;;;;5078550;28;20186;-83
2021/09/26 18:21:37;;;;;;;29.02;16.13;;;;;;;;;;5078851;28;20020;-83
2021/09/26 18:24:06;;;;;;;32.65;16.45;;;;;;;;;;5078778;28;20043;-83
2021/09/26 18:26:32;;;;;;;28.25;16.60;;;;;;;;;;5077542;28;20049;-84
2021/09/26 18:28:59;;;;;;;30.02;16.73;;;;;;;;;;5078871;28;20028;-84
2021/09/26 18:31:31;;;;;;;31.45;18.33;;;;;;;;;;5078456;28;20048;-83
2021/09/26 18:33:57;;;;;;;33.78;16.33;;;;;;;;;;5078597;28;20025;-84
2021/09/26 18:36:25;;;;;;;38.17;18.33;;;;;;;;;;5078223;28;20029;-83
2021/09/26 18:38:53;;;;;;;32.30;18.15;;;;;;;;;;5077392;28;20032;-84
2021/09/26 18:41:22;;;;;;;35.40;17.48;;;;;;;;;;5078296;28;20020;-83
2021/09/26 18:43:49;;;;;;;26.90;17.10;;;;;;;;;;5078388;28;20027;-84
2021/09/26 18:46:16;;;;;;;37.22;18.65;;;;;;;;;;5078302;28;20051;-84
2021/09/26 18:48:43;;;;;;;29.17;18.23;;;;;;;;;;5078343;28;20116;-83
2021/09/26 18:51:09;;;;;;;32.67;17.88;;;;;;;;;;5078377;28;20021;-84
2021/09/26 18:53:36;;;;;;;29.20;15.68;;;;;;;;;;5077056;28;20456;-84
2021/09/26 18:56:03;;;;;;;29.38;15.82;;;;;;;;;;5077715;28;20080;-84
2021/09/26 18:58:29;;;;;;;32.20;15.27;;;;;;;;;;5078126;28;20024;-84
2021/09/26 19:00:57;;;;;;;33.80;16.50;;;;;;;;;;5077959;28;20025;-84
2021/09/26 19:03:23;;;;;;;27.05;15.35;;;;;;;;;;5077031;28;20027;-84
2021/09/26 19:05:51;;;;;;;28.33;14.15;;;;;;;;;;5077181;28;20029;-84
2021/09/26 19:08:17;;;;;;;28.10;13.05;;;;;;;;;;5078059;28;20292;-84
2021/09/26 19:10:44;;;;;;;30.30;13.00;;;;;;;;;;5077723;28;20021;-84
2021/09/26 19:13:17;;;;;;;34.92;13.32;;;;;;;;;;5077181;28;20032;-85
2021/09/26 19:15:44;;;;;;;28.20;13.75;;;;;;;;;;5077754;28;20025;-83
2021/09/26 19:18:10;;;;;;;31.58;13.88;;;;;;;;;;5077910;28;20398;-84
2021/09/26 19:20:36;;;;;;;23.40;12.98;;;;;;;;;;5076841;28;20025;-84
2021/09/26 19:23:04;;;;;;;25.40;13.07;;;;;;;;;;5077900;28;20377;-83
2021/09/26 19:25:31;;;;;;;28.42;13.00;;;;;;;;;;5077635;28;20036;-83
2021/09/26 19:27:57;;;;;;;26.65;11.93;;;;;;;;;;5077570;28;20111;-83
2021/09/26 19:30:24;;;;;;;18.88;11.30;;;;;;;;;;5077842;28;20028;-83
2021/09/26 19:32:50;;;;;;;27.35;11.75;;;;;;;;;;5077449;28;20052;-83
2021/09/26 19:35:19;;;;;;;30.98;11.65;;;;;;;;;;5076220;28;20064;-84
2021/09/26 19:37:45;;;;;;;26.95;11.88;;;;;;;;;;5076260;28;20029;-84
2021/09/26 19:40:30;;;;;;;38.85;11.68;;;;;;;;;;5077540;28;20057;-84
2021/09/26 19:42:57;;;;;;;25.08;11.65;;;;;;;;;;5077252;28;20020;-83
2021/09/26 19:45:24;;;;;;;26.73;11.88;;;;;;;;;;5075795;28;20314;-83
2021/09/26 19:47:50;;;;;;;25.00;12.85;;;;;;;;;;5076885;28;20025;-83
2021/09/26 19:50:17;;;;;;;28.70;12.52;;;;;;;;;;5070469;28;20307;-83
2021/09/26 19:52:43;;;;;;;24.08;12.60;;;;;;;;;;5075273;28;20032;-83
2021/09/26 19:55:10;;;;;;;22.08;11.25;;;;;;;;;;5076283;28;20049;-83
2021/09/26 19:57:36;;;;;;;22.05;10.07;;;;;;;;;;5075665;28;20029;-84
2021/09/26 20:00:03;;;;;;;25.65;10.95;;;;;;;;;;5076740;28;20062;-84
2021/09/26 20:02:29;;;;;;;23.55;10.23;;;;;;;;;;5076805;28;20107;-84
2021/09/26 20:04:56;;;;;;;29.33;11.20;;;;;;;;;;5076694;28;20021;-83
2021/09/26 20:07:23;;;;;;;24.98;11.55;;;;;;;;;;5076459;28;20086;-83
2021/09/26 20:09:49;;;;;;;26.45;12.82;;;;;;;;;;5076354;28;20016;-83
2021/09/26 20:12:15;;;;;;;24.75;12.85;;;;;;;;;;5076321;28;20027;-83
2021/09/26 20:14:41;;;;;;;34.83;12.48;;;;;;;;;;5074820;28;20347;-83
2021/09/26 20:17:07;;;;;;;24.20;11.23;;;;;;;;;;5078414;28;20070;-83
2021/09/26 20:19:34;;;;;;;20.33;10.68;;;;;;;;;;5079635;28;20024;-83
2021/09/26 20:22:00;;;;;;;21.80;10.90;;;;;;;;;;5080109;28;20455;-83
2021/09/26 20:24:26;;;;;;;23.13;10.88;;;;;;;;;;5077881;28;20315;-86
2021/09/26 20:26:52;;;;;;;24.73;10.45;;;;;;;;;;5080485;28;20045;-93
2021/09/26 20:29:18;;;;;;;19.65;9.77;;;;;;;;;;5080563;28;20036;-92
2021/09/26 20:31:45;;;;;;;24.95;10.68;;;;;;;;;;5080850;28;20028;-95
2021/09/26 20:34:11;;;;;;;22.42;10.98;;;;;;;;;;5079676;28;20024;-93
2021/09/26 20:36:37;;;;;;;20.15;10.38;;;;;;;;;;5081389;28;20074;-90
2021/09/26 20:39:41;;;;;;;20.58;10.10;;;;;;;;;;5081787;28;20020;-92
2021/09/26 20:42:07;;;;;;;23.63;9.00;;;;;;;;;;5079533;28;20024;-91
2021/09/26 20:44:33;;;;;;;23.02;7.68;;;;;;;;;;5081042;28;20021;-91
2021/09/26 20:46:59;;;;;;;18.17;7.80;;;;;;;;;;5079917;28;20028;-93
2021/09/26 20:49:26;;;;;;;17.92;7.55;;;;;;;;;;5081246;28;20025;-91
2021/09/26 20:51:52;;;;;;;25.02;7.82;;;;;;;;;;5081369;28;20165;-92
2021/09/26 20:54:20;;;;;;;17.80;8.40;;;;;;;;;;5081405;28;20032;-93
2021/09/26 20:56:46;;;;;;;17.23;7.20;;;;;;;;;;5080456;28;20398;-91
2021/09/26 20:59:12;;;;;;;21.75;7.85;;;;;;;;;;5078884;28;20067;-93
2021/09/26 21:01:38;;;;;;;15.95;7.43;;;;;;;;;;5080570;28;20021;-92
2021/09/26 21:04:05;;;;;;;24.13;7.80;;;;;;;;;;5079632;28;20119;-92
2021/09/26 21:06:31;;;;;;;21.85;7.65;;;;;;;;;;5079578;28;20068;-92
2021/09/26 21:08:57;;;;;;;18.65;7.68;;;;;;;;;;5080380;28;20025;-95
2021/09/26 21:11:24;;;;;;;19.02;7.88;;;;;;;;;;5079893;28;20052;-90
2021/09/26 21:13:50;;;;;;;13.48;7.65;;;;;;;;;;5080465;28;20028;-91
2021/09/26 21:16:16;;;;;;;12.15;6.78;;;;;;;;;;5080493;28;20494;-91
2021/09/26 21:18:44;;;;;;;15.15;8.77;;;;;;;;;;5078608;28;20085;-95
2021/09/26 21:21:10;;;;;;;18.48;7.25;;;;;;;;;;5080538;28;20057;-92
2021/09/26 21:23:36;;;;;;;27.98;8.27;;;;;;;;;;5079024;28;20119;-94
2021/09/26 21:26:03;;;;;;;20.60;7.85;;;;;;;;;;5080300;28;20044;-93
2021/09/26 21:28:29;;;;;;;33.90;8.88;;;;;;;;;;5078749;28;20024;-90
2021/09/26 21:30:56;;;;;;;17.05;7.80;;;;;;;;;;5079343;28;20025;-95
2021/09/26 21:33:22;;;;;;;22.92;7.70;;;;;;;;;;5080036;28;20111;-92
2021/09/26 21:35:49;;;;;;;21.38;7.80;;;;;;;;;;5079902;28;20039;-92
2021/09/26 21:38:19;;;;;;;18.60;8.48;;;;;;;;;;5080245;28;20100;-93
2021/09/26 21:40:45;;;;;;;16.75;7.78;;;;;;;;;;5080040;28;20025;-92
2021/09/26 21:43:11;;;;;;;15.32;7.80;;;;;;;;;;5079905;28;20066;-92
2021/09/26 21:45:38;;;;;;;21.15;8.55;;;;;;;;;;5078987;28;20032;-90
2021/09/26 21:48:05;;;;;;;15.35;7.90;;;;;;;;;;5079735;28;20021;-92
2021/09/26 21:50:32;;;;;;;22.98;8.88;;;;;;;;;;5079608;28;20033;-91
2021/09/26 21:52:58;;;;;;;14.07;7.68;;;;;;;;;;5079764;28;20032;-91
2021/09/26 21:55:26;;;;;;;18.40;8.10;;;;;;;;;;5078503;28;20044;-91
2021/09/26 21:57:52;;;;;;;22.23;8.38;;;;;;;;;;5079755;28;20042;-91
2021/09/26 22:00:21;;;;;;;19.15;8.00;;;;;;;;;;5081213;28;20021;-91
2021/09/26 22:02:47;;;;;;;13.48;8.43;;;;;;;;;;5079534;28;20027;-91
2021/09/26 22:05:14;;;;;;;15.75;7.95;;;;;;;;;;5078510;28;20295;-90
2021/09/26 22:07:40;;;;;;;18.30;8.85;;;;;;;;;;5079470;28;20040;-92
2021/09/26 22:10:06;;;;;;;14.90;7.78;;;;;;;;;;5079452;28;20025;-91
2021/09/26 22:12:32;;;;;;;15.18;7.78;;;;;;;;;;5078930;28;20035;-91
2021/09/26 22:14:58;;;;;;;20.92;8.20;;;;;;;;;;5077627;28;20044;-92
2021/09/26 22:17:25;;;;;;;15.45;7.93;;;;;;;;;;5078340;28;20016;-91
2021/09/26 22:19:51;;;;;;;15.27;7.72;;;;;;;;;;5079093;28;20036;-90
2021/09/26 22:22:17;;;;;;;13.98;7.68;;;;;;;;;;5078138;28;20403;-92
2021/09/26 22:24:45;;;;;;;17.95;8.32;;;;;;;;;;5079231;28;20032;-92
2021/09/26 22:27:11;;;;;;;18.75;9.10;;;;;;;;;;5077907;28;20025;-92
2021/09/26 22:29:37;;;;;;;21.45;9.35;;;;;;;;;;5078859;28;20024;-92
2021/09/26 22:32:03;;;;;;;23.77;9.68;;;;;;;;;;5079022;28;20410;-92
2021/09/26 22:34:29;;;;;;;17.77;9.60;;;;;;;;;;5077790;28;20035;-92
2021/09/26 22:36:56;;;;;;;16.02;9.68;;;;;;;;;;5078604;28;20024;-94
2021/09/26 22:39:23;;;;;;;18.67;9.60;;;;;;;;;;5077906;28;20040;-93
2021/09/26 22:41:49;;;;;;;21.70;11.05;;;;;;;;;;5077953;28;20033;-92
2021/09/26 22:44:15;;;;;;;18.45;9.57;;;;;;;;;;5078622;28;20025;-93
2021/09/26 22:46:41;;;;;;;21.15;9.95;;;;;;;;;;5078631;28;20351;-93
2021/09/26 22:49:07;;;;;;;21.70;9.95;;;;;;;;;;5078553;28;20074;-93
2021/09/26 22:51:34;;;;;;;22.55;9.95;;;;;;;;;;5077408;28;20288;-93
2021/09/26 22:54:00;;;;;;;16.30;9.65;;;;;;;;;;5077821;28;20437;-93
2021/09/26 22:56:26;;;;;;;17.85;10.18;;;;;;;;;;5078157;28;20190;-93
2021/09/26 22:58:52;;;;;;;25.35;10.48;;;;;;;;;;5078496;28;20017;-91
2021/09/26 23:01:18;;;;;;;20.40;10.35;;;;;;;;;;5078424;28;20020;-90
2021/09/26 23:03:45;;;;;;;16.13;9.43;;;;;;;;;;5078303;28;20016;-90
2021/09/26 23:06:11;;;;;;;24.52;11.10;;;;;;;;;;5076850;28;20032;-91
2021/09/26 23:08:38;;;;;;;20.27;11.20;;;;;;;;;;5078476;28;20103;-91
2021/09/26 23:11:04;;;;;;;28.45;10.95;;;;;;;;;;5078270;28;20028;-91
2021/09/26 23:13:30;;;;;;;22.63;11.60;;;;;;;;;;5077270;28;20104;-90
2021/09/26 23:15:57;;;;;;;26.02;11.52;;;;;;;;;;5078092;28;20341;-92
2021/09/26 23:18:23;;;;;;;20.48;11.50;;;;;;;;;;5078111;28;20024;-91
2021/09/26 23:20:51;;;;;;;20.50;10.90;;;;;;;;;;5077946;28;20021;-92
2021/09/26 23:23:19;;;;;;;17.77;10.40;;;;;;;;;;5077129;28;20025;-91
2021/09/26 23:25:45;;;;;;;23.67;11.52;;;;;;;;;;5077124;28;20036;-91
2021/09/26 23:28:11;;;;;;;21.27;10.52;;;;;;;;;;5078036;28;20318;-91
2021/09/26 23:30:40;;;;;;;21.40;10.35;;;;;;;;;;5077089;28;20037;-91
2021/09/26 23:33:06;;;;;;;14.55;10.02;;;;;;;;;;5076821;28;20024;-91
2021/09/26 23:35:33;;;;;;;23.40;10.60;;;;;;;;;;5077778;28;20027;-92
2021/09/26 23:38:00;;;;;;;20.10;9.90;;;;;;;;;;5078136;28;20391;-91
2021/09/26 23:40:30;;;;;;;27.20;10.80;;;;;;;;;;5077804;28;20298;-91
2021/09/26 23:42:57;;;;;;;19.20;10.80;;;;;;;;;;5077882;28;20021;-92
2021/09/26 23:45:24;;;;;;;18.70;10.50;;;;;;;;;;5077771;28;20063;-92
2021/09/26 23:47:50;;;;;;;21.20;9.93;;;;;;;;;;5077769;28;20403;-92
2021/09/26 23:50:17;;;;;;;18.67;10.25;;;;;;;;;;5077431;28;20326;-92
2021/09/26 23:52:43;;;;;;;17.83;10.25;;;;;;;;;;5077297;28;20052;-91
2021/09/26 23:55:10;;;;;;;21.90;10.90;;;;;;;;;;5078944;28;20075;-91
2021/09/26 23:57:36;;;;;;;20.55;11.70;;;;;;;;;;5077622;28;20063;-92
